Washburn, ME

12:43 PM EST on December 26, 2014 (GMT -0500)
Houlton International | Change Station
CLOSE
Current Station
Airport
Location: Houlton,
Elevation: 492 ft
Nearby Weather Stations
Active Advisory: Wind Advisory Active Notice: Record Report, Public Information Statement

Elev 492 ft 46.12 °N, 67.79 °W | Updated 50 minutes ago

Clear
Clear
42 °F
Feels Like 35 °F
N
14
Wind Variable Wind from West
Gusts 22 mph

Today
High -- | Low -- °F
--% Chance of Precip.
Yesterday
High -- | Low -- °F
Precip. -- in
7:16 AM 3:49 PM
Waxing Crescent, 27% visible
Pressure 29.83 in
Visibility 10.0 miles
Clouds Clear
Windchill 35 °F
Dew Point 21 °F
Humidity 43%
Rainfall 0.00 in
Snow Depth Not available.
UV 2 out of 12
Pollen .10 out of 12
Air Quality Not available.
Flu Activity Not available.
METAR KHUL 261653Z AUTO 27012G19KT 10SM CLR 06/M06 A2982 RMK AO2 PK WND 27029/1559 SLP102 T00561061

More Conditions Fewer Conditions

Pressure 29.83 in
Visibility 10.0 miles
Clouds Clear
Windchill 35 °F
Dew Point 21 °F
Humidity 43%
Rainfall 0.00 in
Snow Depth Not available.
UV 2 out of 12
Pollen .10 out of 12
Air Quality Not available.
Flu Activity Not available.
METAR KHUL 261653Z AUTO 27012G19KT 10SM CLR 06/M06 A2982 RMK AO2 PK WND 27029/1559 SLP102 T00561061

More Conditions Fewer Conditions

10-Day Weather Forecast

Almanac

Astronomy

Dec. 26, 2014 Rise Set
Actual Time
Civil Twilight
Nautical Twilight
Astronomical Twilight
Moon
Length of Visible Light
Length of Day
Tomorrow will be .
, % of the Moon is Illuminated

Today's Extremes

State Highs State Lows

Community

WunderPhotos

Upload Photos

1,780,654 photos uploaded!

WunderBlogs® & News

Nearby

Air Quality

  Air Quality AQ Index Pollutant
Not available.

Snow Depth

Station Depth Elevation

Earthquake Activity

City Distance Mag. Time & Date
Minimum magnitude displayed is 2.5.

Coastal Water Temperatures

Place Temperature

Nearby Weather Stations